sensor_id;sensor_type;location;lat;lon;timestamp;pressure;altitude;pressure_sealevel;temperature;humidity
51417;BME280;50158;51.528;6.982;2022-10-26T00:00:16;67320;;;8.68;100
51417;BME280;50158;51.528;6.982;2022-10-26T00:05:21;67310;;;8.64;100
51417;BME280;50158;51.528;6.982;2022-10-26T00:09:11;67310;;;8.62;100
51417;BME280;50158;51.528;6.982;2022-10-26T00:15:22;67310;;;8.68;100
51417;BME280;50158;51.528;6.982;2022-10-26T00:20:19;67320;;;8.72;100
51417;BME280;50158;51.528;6.982;2022-10-26T00:25:23;67320;;;8.78;100
51417;BME280;50158;51.528;6.982;2022-10-26T00:29:14;67330;;;8.8;100
51417;BME280;50158;51.528;6.982;2022-10-26T00:34:10;67340;;;8.92;100
51417;BME280;50158;51.528;6.982;2022-10-26T00:40:21;67340;;;8.97;100
51417;BME280;50158;51.528;6.982;2022-10-26T00:45:20;67350;;;9.04;100
51417;BME280;50158;51.528;6.982;2022-10-26T00:51:24;67360;;;9.09;100
51417;BME280;50158;51.528;6.982;2022-10-26T00:55:11;67370;;;9.16;100
51417;BME280;50158;51.528;6.982;2022-10-26T01:00:15;67380;;;9.26;100
51417;BME280;50158;51.528;6.982;2022-10-26T01:05:13;67380;;;9.32;100
51417;BME280;50158;51.528;6.982;2022-10-26T01:11:23;67390;;;9.39;100
51417;BME280;50158;51.528;6.982;2022-10-26T01:15:23;67390;;;9.41;100
51417;BME280;50158;51.528;6.982;2022-10-26T01:21:27;67400;;;9.47;100
51417;BME280;50158;51.528;6.982;2022-10-26T01:25:37;67410;;;9.53;100
51417;BME280;50158;51.528;6.982;2022-10-26T01:34:11;67420;;;9.64;100
51417;BME280;50158;51.528;6.982;2022-10-26T01:40:22;67420;;;9.63;100
51417;BME280;50158;51.528;6.982;2022-10-26T01:45:25;67420;;;9.62;100
51417;BME280;50158;51.528;6.982;2022-10-26T01:46:48;67410;;;9.62;100
51417;BME280;50158;51.528;6.982;2022-10-26T01:49:09;67420;;;9.68;100
51417;BME280;50158;51.528;6.982;2022-10-26T01:55:43;67420;;;9.68;100
51417;BME280;50158;51.528;6.982;2022-10-26T01:59:29;67410;;;9.62;100
51417;BME280;50158;51.528;6.982;2022-10-26T02:09:20;67420;;;9.68;100
51417;BME280;50158;51.528;6.982;2022-10-26T02:14:20;67430;;;9.71;100
51417;BME280;50158;51.528;6.982;2022-10-26T02:19:20;67430;;;9.78;100
51417;BME280;50158;51.528;6.982;2022-10-26T02:24:16;67430;;;9.8;100
51417;BME280;50158;51.528;6.982;2022-10-26T02:29:21;67450;;;9.93;100
51417;BME280;50158;51.528;6.982;2022-10-26T02:34:26;67450;;;9.91;100
51417;BME280;50158;51.528;6.982;2022-10-26T02:38:16;67450;;;9.93;100
51417;BME280;50158;51.528;6.982;2022-10-26T02:43:13;67450;;;9.97;100
51417;BME280;50158;51.528;6.982;2022-10-26T02:49:23;67450;;;9.97;100
51417;BME280;50158;51.528;6.982;2022-10-26T02:54:33;67470;;;10.13;100
51417;BME280;50158;51.528;6.982;2022-10-26T02:58:23;67480;;;10.18;100
51417;BME280;50158;51.528;6.982;2022-10-26T03:03:15;67480;;;10.21;100
51417;BME280;50158;51.528;6.982;2022-10-26T03:08:28;67490;;;10.31;100
51417;BME280;50158;51.528;6.982;2022-10-26T03:12:10;67490;;;10.32;100
51417;BME280;50158;51.528;6.982;2022-10-26T03:17:23;67500;;;10.4;100
51417;BME280;50158;51.528;6.982;2022-10-26T03:22:20;67500;;;10.46;100
51417;BME280;50158;51.528;6.982;2022-10-26T03:27:16;67520;;;10.56;100
51417;BME280;50158;51.528;6.982;2022-10-26T03:32:13;67520;;;10.58;100
51417;BME280;50158;51.528;6.982;2022-10-26T03:38:24;67520;;;10.56;100
51417;BME280;50158;51.528;6.982;2022-10-26T03:51:10;67520;;;10.58;100
51417;BME280;50158;51.528;6.982;2022-10-26T03:57:20;67520;;;10.61;100
51417;BME280;50158;51.528;6.982;2022-10-26T04:02:17;67520;;;10.6;100
51417;BME280;50158;51.528;6.982;2022-10-26T04:11:12;67520;;;10.56;100
51417;BME280;50158;51.528;6.982;2022-10-26T04:17:24;67520;;;10.61;100
51417;BME280;50158;51.528;6.982;2022-10-26T04:22:19;67520;;;10.57;100
51417;BME280;50158;51.528;6.982;2022-10-26T04:27:16;67520;;;10.57;100
51417;BME280;50158;51.528;6.982;2022-10-26T04:32:12;67500;;;10.4;100
51417;BME280;50158;51.528;6.982;2022-10-26T04:37:25;67490;;;10.28;100
51417;BME280;50158;51.528;6.982;2022-10-26T04:42:22;67480;;;10.18;100
51417;BME280;50158;51.528;6.982;2022-10-26T04:53:21;67470;;;10.14;100
51417;BME280;50158;51.528;6.982;2022-10-26T04:57:20;67480;;;10.24;100
51417;BME280;50158;51.528;6.982;2022-10-26T05:02:16;67490;;;10.29;100
51417;BME280;50158;51.528;6.982;2022-10-26T05:07:13;67490;;;10.35;100
51417;BME280;50158;51.528;6.982;2022-10-26T05:13:23;67520;;;10.61;100
51417;BME280;50158;51.528;6.982;2022-10-26T05:18:20;67520;;;10.62;100
51417;BME280;50158;51.528;6.982;2022-10-26T05:23:25;67530;;;10.73;100
51417;BME280;50158;51.528;6.982;2022-10-26T05:28:29;67540;;;10.77;100
51417;BME280;50158;51.528;6.982;2022-10-26T05:37:27;67540;;;10.78;100
51417;BME280;50158;51.528;6.982;2022-10-26T05:42:21;67560;;;10.94;100
51417;BME280;50158;51.528;6.982;2022-10-26T05:47:18;67580;;;11.11;100
51417;BME280;50158;51.528;6.982;2022-10-26T05:53:20;67570;;;11.08;100
51417;BME280;50158;51.528;6.982;2022-10-26T05:57:11;67570;;;11.03;100
51417;BME280;50158;51.528;6.982;2022-10-26T06:02:18;67570;;;11.09;100
51417;BME280;50158;51.528;6.982;2022-10-26T06:07:13;67570;;;11.11;100
51417;BME280;50158;51.528;6.982;2022-10-26T06:15:12;67570;;;11.06;100
51417;BME280;50158;51.528;6.982;2022-10-26T06:21:40;67570;;;11.05;100
51417;BME280;50158;51.528;6.982;2022-10-26T06:26:21;67570;;;11.1;100
51417;BME280;50158;51.528;6.982;2022-10-26T06:31:13;67590;;;11.21;100
51417;BME280;50158;51.528;6.982;2022-10-26T06:36:14;67580;;;11.18;100
51417;BME280;50158;51.528;6.982;2022-10-26T06:41:23;67590;;;11.27;100
51417;BME280;50158;51.528;6.982;2022-10-26T06:46:31;67600;;;11.32;100
51417;BME280;50158;51.528;6.982;2022-10-26T06:51:14;67600;;;11.39;100
51417;BME280;50158;51.528;6.982;2022-10-26T06:56:29;67620;;;11.56;100
51417;BME280;50158;51.528;6.982;2022-10-26T07:00:20;67620;;;11.51;100
51417;BME280;50158;51.528;6.982;2022-10-26T07:05:24;67630;;;11.63;100
51417;BME280;50158;51.528;6.982;2022-10-26T07:10:29;67640;;;11.74;100
51417;BME280;50158;51.528;6.982;2022-10-26T07:14:12;67660;;;11.91;100
51417;BME280;50158;51.528;6.982;2022-10-26T07:19:24;67690;;;12.13;100
51417;BME280;50158;51.528;6.982;2022-10-26T07:24:21;67730;;;12.5;100
51417;BME280;50158;51.528;6.982;2022-10-26T07:28:19;67720;;;12.46;100
51417;BME280;50158;51.528;6.982;2022-10-26T07:33:16;67750;;;12.75;100
51417;BME280;50158;51.528;6.982;2022-10-26T07:38:12;67760;;;12.8;100
51417;BME280;50158;51.528;6.982;2022-10-26T07:44:25;67790;;;13.12;100
51417;BME280;50158;51.528;6.982;2022-10-26T07:54:16;67810;;;13.31;100
51417;BME280;50158;51.528;6.982;2022-10-26T07:59:13;67820;;;13.42;100
51417;BME280;50158;51.528;6.982;2022-10-26T08:09:22;67910;;;14.16;100
51417;BME280;50158;51.528;6.982;2022-10-26T08:14:19;67990;;;14.91;100
51417;BME280;50158;51.528;6.982;2022-10-26T08:19:15;68070;;;15.7;100
51417;BME280;50158;51.528;6.982;2022-10-26T08:24:20;68070;;;15.64;100
51417;BME280;50158;51.528;6.982;2022-10-26T08:29:25;68030;;;15.29;100
51417;BME280;50158;51.528;6.982;2022-10-26T08:33:15;68030;;;15.3;100
51417;BME280;50158;51.528;6.982;2022-10-26T08:38:28;68020;;;15.17;100
51417;BME280;50158;51.528;6.982;2022-10-26T08:43:42;68050;;;15.5;100
51417;BME280;50158;51.528;6.982;2022-10-26T08:46:42;68060;;;15.62;100
51417;BME280;50158;51.528;6.982;2022-10-26T08:52:13;68090;;;15.88;100
51417;BME280;50158;51.528;6.982;2022-10-26T08:58:25;68140;;;16.29;100
51417;BME280;50158;51.528;6.982;2022-10-26T09:03:27;68160;;;16.45;100
51417;BME280;50158;51.528;6.982;2022-10-26T09:12:18;68170;;;16.64;100
51417;BME280;50158;51.528;6.982;2022-10-26T09:17:17;68190;;;16.79;100
51417;BME280;50158;51.528;6.982;2022-10-26T09:23:26;68230;;;17.14;100
51417;BME280;50158;51.528;6.982;2022-10-26T09:28:18;68260;;;17.4;100
51417;BME280;50158;51.528;6.982;2022-10-26T09:33:23;68270;;;17.54;100
51417;BME280;50158;51.528;6.982;2022-10-26T09:37:18;68290;;;17.7;100
51417;BME280;50158;51.528;6.982;2022-10-26T09:42:14;68290;;;17.7;100
51417;BME280;50158;51.528;6.982;2022-10-26T09:48:53;68290;;;17.71;100
51417;BME280;50158;51.528;6.982;2022-10-26T09:52:03;68300;;;17.83;100
51417;BME280;50158;51.528;6.982;2022-10-26T09:58:25;68280;;;17.58;100
51417;BME280;50158;51.528;6.982;2022-10-26T10:03:19;68260;;;17.44;100
51417;BME280;50158;51.528;6.982;2022-10-26T10:08:20;68270;;;17.52;100
51417;BME280;50158;51.528;6.982;2022-10-26T10:13:13;68290;;;17.7;100
51417;BME280;50158;51.528;6.982;2022-10-26T10:19:26;68310;;;17.87;100
51417;BME280;50158;51.528;6.982;2022-10-26T10:23:24;68320;;;17.92;100
51417;BME280;50158;51.528;6.982;2022-10-26T10:33:14;68320;;;17.95;100
51417;BME280;50158;51.528;6.982;2022-10-26T10:49:26;68350;;;18.31;100
51417;BME280;50158;51.528;6.982;2022-10-26T10:54:17;68370;;;18.45;100
51417;BME280;50158;51.528;6.982;2022-10-26T10:56:45;68380;;;18.49;100
51417;BME280;50158;51.528;6.982;2022-10-26T11:00:16;68370;;;18.43;100
51417;BME280;50158;51.528;6.982;2022-10-26T11:01:43;68390;;;18.59;100
51417;BME280;50158;51.528;6.982;2022-10-26T11:04:39;68390;;;18.65;100
51417;BME280;50158;51.528;6.982;2022-10-26T11:06:36;68410;;;18.76;100
51417;BME280;50158;51.528;6.982;2022-10-26T11:09:12;68400;;;18.73;100
51417;BME280;50158;51.528;6.982;2022-10-26T11:11:35;68390;;;18.59;100
51417;BME280;50158;51.528;6.982;2022-10-26T11:15:39;68390;;;18.59;100
51417;BME280;50158;51.528;6.982;2022-10-26T11:19:23;68400;;;18.69;100
51417;BME280;50158;51.528;6.982;2022-10-26T11:24:23;68420;;;18.85;100
51417;BME280;50158;51.528;6.982;2022-10-26T11:29:18;68410;;;18.79;100
51417;BME280;50158;51.528;6.982;2022-10-26T11:30:29;68420;;;18.87;100
51417;BME280;50158;51.528;6.982;2022-10-26T11:35:21;68430;;;19.01;100
51417;BME280;50158;51.528;6.982;2022-10-26T11:39:21;68450;;;19.16;100
51417;BME280;50158;51.528;6.982;2022-10-26T11:44:15;68450;;;19.18;100
51417;BME280;50158;51.528;6.982;2022-10-26T11:50:24;68470;;;19.39;100
51417;BME280;50158;51.528;6.982;2022-10-26T11:53:02;68460;;;19.27;100
51417;BME280;50158;51.528;6.982;2022-10-26T11:54:15;68460;;;19.27;100
51417;BME280;50158;51.528;6.982;2022-10-26T11:56:51;68460;;;19.24;100
51417;BME280;50158;51.528;6.982;2022-10-26T11:59:19;68470;;;19.36;100
51417;BME280;50158;51.528;6.982;2022-10-26T12:01:49;68470;;;19.41;100
51417;BME280;50158;51.528;6.982;2022-10-26T12:04:15;68480;;;19.45;100
51417;BME280;50158;51.528;6.982;2022-10-26T12:06:43;68490;;;19.53;100
51417;BME280;50158;51.528;6.982;2022-10-26T12:09:13;68520;;;19.78;100
51417;BME280;50158;51.528;6.982;2022-10-26T12:11:45;68520;;;19.81;100
51417;BME280;50158;51.528;6.982;2022-10-26T12:14:14;68520;;;19.86;100
51417;BME280;50158;51.528;6.982;2022-10-26T12:17:01;68530;;;19.87;100
51417;BME280;50158;51.528;6.982;2022-10-26T12:19:07;68530;;;19.89;100
51417;BME280;50158;51.528;6.982;2022-10-26T12:25:23;68540;;;20.04;100
51417;BME280;50158;51.528;6.982;2022-10-26T12:30:22;68570;;;20.26;100
51417;BME280;50158;51.528;6.982;2022-10-26T12:35:48;68560;;;20.2;100
51417;BME280;50158;51.528;6.982;2022-10-26T12:36:47;68580;;;20.37;100
51417;BME280;50158;51.528;6.982;2022-10-26T12:41:20;68600;;;20.55;100
51417;BME280;50158;51.528;6.982;2022-10-26T12:46:36;68580;;;20.33;100
51417;BME280;50158;51.528;6.982;2022-10-26T13:01:28;68640;;;20.93;100
51417;BME280;50158;51.528;6.982;2022-10-26T13:10:18;68690;;;21.35;100
51417;BME280;50158;51.528;6.982;2022-10-26T13:15:18;68720;;;21.63;99.15
51417;BME280;50158;51.528;6.982;2022-10-26T13:21:24;68710;;;21.56;99.79
51417;BME280;50158;51.528;6.982;2022-10-26T13:25:23;68710;;;21.53;99.65
51417;BME280;50158;51.528;6.982;2022-10-26T13:30:21;68700;;;21.49;100
51417;BME280;50158;51.528;6.982;2022-10-26T13:40:15;68710;;;21.56;99.75
51417;BME280;50158;51.528;6.982;2022-10-26T13:45:33;68700;;;21.48;99.43
51417;BME280;50158;51.528;6.982;2022-10-26T13:50:23;68700;;;21.47;99.96
51417;BME280;50158;51.528;6.982;2022-10-26T13:54:17;68740;;;21.87;97.39
51417;BME280;50158;51.528;6.982;2022-10-26T13:59:25;68730;;;21.78;98.07
51417;BME280;50158;51.528;6.982;2022-10-26T14:03:17;68720;;;21.63;99.25
51417;BME280;50158;51.528;6.982;2022-10-26T14:08:14;68740;;;21.8;98.73
51417;BME280;50158;51.528;6.982;2022-10-26T14:14:25;68690;;;21.38;99.94
51417;BME280;50158;51.528;6.982;2022-10-26T14:19:23;68650;;;21;100
51417;BME280;50158;51.528;6.982;2022-10-26T14:24:27;68620;;;20.7;100
51417;BME280;50158;51.528;6.982;2022-10-26T14:29:22;68620;;;20.73;100
51417;BME280;50158;51.528;6.982;2022-10-26T14:34:26;68630;;;20.79;100
51417;BME280;50158;51.528;6.982;2022-10-26T14:37:02;68620;;;20.78;100
51417;BME280;50158;51.528;6.982;2022-10-26T14:44:19;68600;;;20.56;100
51417;BME280;50158;51.528;6.982;2022-10-26T14:49:24;68600;;;20.51;100
51417;BME280;50158;51.528;6.982;2022-10-26T14:54:27;68570;;;20.29;100
51417;BME280;50158;51.528;6.982;2022-10-26T15:00:31;68570;;;20.31;100
51417;BME280;50158;51.528;6.982;2022-10-26T15:04:32;68570;;;20.29;100
51417;BME280;50158;51.528;6.982;2022-10-26T15:13:29;68540;;;19.96;100
51417;BME280;50158;51.528;6.982;2022-10-26T15:18:17;68530;;;19.85;100
51417;BME280;50158;51.528;6.982;2022-10-26T15:24:34;68500;;;19.65;100
51417;BME280;50158;51.528;6.982;2022-10-26T15:28:24;68480;;;19.42;100
51417;BME280;50158;51.528;6.982;2022-10-26T15:33:27;68460;;;19.28;100
51417;BME280;50158;51.528;6.982;2022-10-26T15:43:12;68410;;;18.83;100
51417;BME280;50158;51.528;6.982;2022-10-26T15:49:23;68390;;;18.62;100
51417;BME280;50158;51.528;6.982;2022-10-26T15:54:28;68340;;;18.15;100
51417;BME280;50158;51.528;6.982;2022-10-26T15:58:27;68300;;;17.78;100
51417;BME280;50158;51.528;6.982;2022-10-26T16:03:24;68280;;;17.64;100
51417;BME280;50158;51.528;6.982;2022-10-26T16:08:19;68280;;;17.54;100
51417;BME280;50158;51.528;6.982;2022-10-26T16:17:31;68250;;;17.28;100
51417;BME280;50158;51.528;6.982;2022-10-26T16:21:15;68220;;;17.02;100
51417;BME280;50158;51.528;6.982;2022-10-26T16:26:19;68240;;;17.27;100
51417;BME280;50158;51.528;6.982;2022-10-26T16:31:16;68250;;;17.35;100
51417;BME280;50158;51.528;6.982;2022-10-26T16:36:19;68290;;;17.74;100
51417;BME280;50158;51.528;6.982;2022-10-26T16:37:34;68310;;;17.84;100
51417;BME280;50158;51.528;6.982;2022-10-26T16:42:22;68320;;;17.93;100
51417;BME280;50158;51.528;6.982;2022-10-26T16:47:19;68320;;;17.96;100
51417;BME280;50158;51.528;6.982;2022-10-26T16:51:11;68310;;;17.91;100
51417;BME280;50158;51.528;6.982;2022-10-26T16:53:38;68310;;;17.9;100
51417;BME280;50158;51.528;6.982;2022-10-26T16:56:07;68310;;;17.91;100
51417;BME280;50158;51.528;6.982;2022-10-26T16:59:48;68310;;;17.87;100
51417;BME280;50158;51.528;6.982;2022-10-26T17:01:02;68300;;;17.79;100
51417;BME280;50158;51.528;6.982;2022-10-26T17:03:31;68300;;;17.78;100
51417;BME280;50158;51.528;6.982;2022-10-26T17:06:00;68290;;;17.73;100
51417;BME280;50158;51.528;6.982;2022-10-26T17:09:41;68300;;;17.78;100
51417;BME280;50158;51.528;6.982;2022-10-26T17:11:00;68310;;;17.86;100
51417;BME280;50158;51.528;6.982;2022-10-26T17:13:23;68300;;;17.78;100
51417;BME280;50158;51.528;6.982;2022-10-26T17:17:14;68290;;;17.69;100
51417;BME280;50158;51.528;6.982;2022-10-26T17:22:19;68290;;;17.66;100
51417;BME280;50158;51.528;6.982;2022-10-26T17:27:24;68270;;;17.51;100
51417;BME280;50158;51.528;6.982;2022-10-26T17:31:14;68270;;;17.49;100
51417;BME280;50158;51.528;6.982;2022-10-26T17:36:20;68250;;;17.35;100
51417;BME280;50158;51.528;6.982;2022-10-26T17:42:21;68250;;;17.33;100
51417;BME280;50158;51.528;6.982;2022-10-26T17:47:18;68240;;;17.27;100
51417;BME280;50158;51.528;6.982;2022-10-26T17:52:14;68230;;;17.12;100
51417;BME280;50158;51.528;6.982;2022-10-26T17:57:28;68210;;;16.96;100
51417;BME280;50158;51.528;6.982;2022-10-26T18:01:18;68210;;;16.94;100
51417;BME280;50158;51.528;6.982;2022-10-26T18:06:14;68200;;;16.87;100
51417;BME280;50158;51.528;6.982;2022-10-26T18:17:30;68200;;;16.85;100
51417;BME280;50158;51.528;6.982;2022-10-26T18:21:20;68200;;;16.9;100
51417;BME280;50158;51.528;6.982;2022-10-26T18:26:26;68180;;;16.65;100
51417;BME280;50158;51.528;6.982;2022-10-26T18:31:23;68140;;;16.29;100
51417;BME280;50158;51.528;6.982;2022-10-26T18:35:12;68110;;;16.07;100
51417;BME280;50158;51.528;6.982;2022-10-26T18:41:16;68130;;;16.25;100
51417;BME280;50158;51.528;6.982;2022-10-26T18:45:14;68140;;;16.27;100
51417;BME280;50158;51.528;6.982;2022-10-26T18:51:25;68110;;;16.04;100
51417;BME280;50158;51.528;6.982;2022-10-26T18:54:01;68100;;;15.97;100
51417;BME280;50158;51.528;6.982;2022-10-26T18:56:29;68080;;;15.77;100
51417;BME280;50158;51.528;6.982;2022-10-26T18:58:58;68080;;;15.77;100
51417;BME280;50158;51.528;6.982;2022-10-26T19:01:27;68090;;;15.82;100
51417;BME280;50158;51.528;6.982;2022-10-26T19:03:55;68050;;;15.51;100
51417;BME280;50158;51.528;6.982;2022-10-26T19:06:23;68030;;;15.31;100
51417;BME280;50158;51.528;6.982;2022-10-26T19:08:51;68010;;;15.06;100
51417;BME280;50158;51.528;6.982;2022-10-26T19:11:19;67970;;;14.72;100
51417;BME280;50158;51.528;6.982;2022-10-26T19:13:47;67950;;;14.54;100
51417;BME280;50158;51.528;6.982;2022-10-26T19:16:16;67930;;;14.34;100
51417;BME280;50158;51.528;6.982;2022-10-26T19:21:20;67910;;;14.2;100
51417;BME280;50158;51.528;6.982;2022-10-26T19:25:10;67900;;;14.09;100
51417;BME280;50158;51.528;6.982;2022-10-26T19:31:22;67870;;;13.8;100
51417;BME280;50158;51.528;6.982;2022-10-26T19:35:12;67850;;;13.62;100
51417;BME280;50158;51.528;6.982;2022-10-26T19:41:23;67840;;;13.52;100
51417;BME280;50158;51.528;6.982;2022-10-26T19:45:13;67820;;;13.41;100
51417;BME280;50158;51.528;6.982;2022-10-26T19:51:24;67820;;;13.36;100
51417;BME280;50158;51.528;6.982;2022-10-26T19:56:20;67820;;;13.33;100
51417;BME280;50158;51.528;6.982;2022-10-26T19:58:48;67810;;;13.27;100
51417;BME280;50158;51.528;6.982;2022-10-26T20:01:17;67810;;;13.24;100
51417;BME280;50158;51.528;6.982;2022-10-26T20:07:36;67790;;;13.08;100
51417;BME280;50158;51.528;6.982;2022-10-26T20:11:26;67790;;;13.06;100
51417;BME280;50158;51.528;6.982;2022-10-26T20:15:17;67770;;;12.94;100
51417;BME280;50158;51.528;6.982;2022-10-26T20:19:07;67780;;;12.96;100
51417;BME280;50158;51.528;6.982;2022-10-26T20:21:36;67770;;;12.91;100
51417;BME280;50158;51.528;6.982;2022-10-26T20:24:04;67770;;;12.92;100
51417;BME280;50158;51.528;6.982;2022-10-26T20:25:18;67770;;;12.9;100
51417;BME280;50158;51.528;6.982;2022-10-26T20:27:54;67770;;;12.95;100
51417;BME280;50158;51.528;6.982;2022-10-26T20:31:45;67760;;;12.83;100
51417;BME280;50158;51.528;6.982;2022-10-26T20:34:13;67760;;;12.84;100
51417;BME280;50158;51.528;6.982;2022-10-26T20:36:41;67760;;;12.84;100
51417;BME280;50158;51.528;6.982;2022-10-26T20:40:09;67770;;;12.88;100
51417;BME280;50158;51.528;6.982;2022-10-26T20:42:36;67770;;;12.89;100
51417;BME280;50158;51.528;6.982;2022-10-26T20:45:08;67780;;;12.96;100
51417;BME280;50158;51.528;6.982;2022-10-26T20:47:33;67770;;;12.91;100
51417;BME280;50158;51.528;6.982;2022-10-26T20:50:01;67770;;;12.94;100
51417;BME280;50158;51.528;6.982;2022-10-26T20:53:02;67770;;;12.92;100
51417;BME280;50158;51.528;6.982;2022-10-26T20:56:21;67780;;;12.98;100
51417;BME280;50158;51.528;6.982;2022-10-26T21:00:10;67760;;;12.82;100
51417;BME280;50158;51.528;6.982;2022-10-26T21:05:15;67760;;;12.78;100
51417;BME280;50158;51.528;6.982;2022-10-26T21:10:11;67750;;;12.67;100
51417;BME280;50158;51.528;6.982;2022-10-26T21:15:33;67740;;;12.62;100
51417;BME280;50158;51.528;6.982;2022-10-26T21:19:15;67740;;;12.66;100
51417;BME280;50158;51.528;6.982;2022-10-26T21:24:11;67750;;;12.73;100
51417;BME280;50158;51.528;6.982;2022-10-26T21:30:23;67730;;;12.56;100
51417;BME280;50158;51.528;6.982;2022-10-26T21:35:19;67730;;;12.54;100
51417;BME280;50158;51.528;6.982;2022-10-26T21:40:07;67720;;;12.45;100
51417;BME280;50158;51.528;6.982;2022-10-26T21:46:18;67730;;;12.5;100
51417;BME280;50158;51.528;6.982;2022-10-26T21:51:15;67720;;;12.46;100
51417;BME280;50158;51.528;6.982;2022-10-26T21:56:15;67710;;;12.34;100
51417;BME280;50158;51.528;6.982;2022-10-26T22:02:21;67720;;;12.42;100
51417;BME280;50158;51.528;6.982;2022-10-26T22:07:18;67730;;;12.54;100
51417;BME280;50158;51.528;6.982;2022-10-26T22:12:14;67750;;;12.75;100
51417;BME280;50158;51.528;6.982;2022-10-26T22:23:22;67750;;;12.75;100
51417;BME280;50158;51.528;6.982;2022-10-26T22:28:18;67750;;;12.72;100
51417;BME280;50158;51.528;6.982;2022-10-26T22:38:11;67750;;;12.72;100
51417;BME280;50158;51.528;6.982;2022-10-26T22:40:39;67740;;;12.65;100
51417;BME280;50158;51.528;6.982;2022-10-26T22:49:18;67740;;;12.58;100
51417;BME280;50158;51.528;6.982;2022-10-26T22:53:09;67730;;;12.57;100
51417;BME280;50158;51.528;6.982;2022-10-26T22:55:39;67730;;;12.53;100
51417;BME280;50158;51.528;6.982;2022-10-26T22:58:05;67720;;;12.42;100
51417;BME280;50158;51.528;6.982;2022-10-26T23:00:34;67720;;;12.46;100
51417;BME280;50158;51.528;6.982;2022-10-26T23:04:24;67720;;;12.44;100
51417;BME280;50158;51.528;6.982;2022-10-26T23:06:53;67720;;;12.45;100
51417;BME280;50158;51.528;6.982;2022-10-26T23:10:43;67700;;;12.27;100
51417;BME280;50158;51.528;6.982;2022-10-26T23:14:34;67720;;;12.4;100
51417;BME280;50158;51.528;6.982;2022-10-26T23:18:24;67720;;;12.39;100
51417;BME280;50158;51.528;6.982;2022-10-26T23:20:53;67700;;;12.27;100
51417;BME280;50158;51.528;6.982;2022-10-26T23:24:43;67690;;;12.13;100
51417;BME280;50158;51.528;6.982;2022-10-26T23:28:34;67670;;;12.02;100
51417;BME280;50158;51.528;6.982;2022-10-26T23:31:02;67680;;;12.05;100
51417;BME280;50158;51.528;6.982;2022-10-26T23:33:31;67680;;;12.06;100
51417;BME280;50158;51.528;6.982;2022-10-26T23:35:59;67670;;;12.02;100
51417;BME280;50158;51.528;6.982;2022-10-26T23:38:27;67680;;;12.05;100
51417;BME280;50158;51.528;6.982;2022-10-26T23:41:53;67670;;;12.01;100
51417;BME280;50158;51.528;6.982;2022-10-26T23:46:16;67670;;;11.98;100
51417;BME280;50158;51.528;6.982;2022-10-26T23:47:30;67670;;;11.99;100
51417;BME280;50158;51.528;6.982;2022-10-26T23:50:07;67670;;;11.95;100
51417;BME280;50158;51.528;6.982;2022-10-26T23:52:35;67680;;;12.06;100
51417;BME280;50158;51.528;6.982;2022-10-26T23:55:03;67680;;;12.11;100
51417;BME280;50158;51.528;6.982;2022-10-26T23:57:32;67680;;;12.04;100
